sensor_id;sensor_type;location;lat;lon;timestamp;P1;durP1;ratioP1;P2;durP2;ratioP2
9465;SDS011;4771;48.726;9.006;2022-12-18T00:00:12;41.20;;;18.73;;
9465;SDS011;4771;48.726;9.006;2022-12-18T00:02:40;39.60;;;18.13;;
9465;SDS011;4771;48.726;9.006;2022-12-18T00:05:07;37.40;;;18.17;;
9465;SDS011;4771;48.726;9.006;2022-12-18T00:07:35;42.03;;;18.90;;
9465;SDS011;4771;48.726;9.006;2022-12-18T00:10:02;40.57;;;20.67;;
9465;SDS011;4771;48.726;9.006;2022-12-18T00:12:29;40.83;;;19.80;;
9465;SDS011;4771;48.726;9.006;2022-12-18T00:14:57;39.67;;;18.93;;
9465;SDS011;4771;48.726;9.006;2022-12-18T00:17:24;39.50;;;19.27;;
9465;SDS011;4771;48.726;9.006;2022-12-18T00:19:51;39.67;;;19.93;;
9465;SDS011;4771;48.726;9.006;2022-12-18T00:22:18;39.20;;;19.47;;
9465;SDS011;4771;48.726;9.006;2022-12-18T00:24:45;38.77;;;19.40;;
9465;SDS011;4771;48.726;9.006;2022-12-18T00:27:12;45.77;;;20.83;;
9465;SDS011;4771;48.726;9.006;2022-12-18T00:29:42;42.70;;;19.73;;
9465;SDS011;4771;48.726;9.006;2022-12-18T00:32:10;41.97;;;19.97;;
9465;SDS011;4771;48.726;9.006;2022-12-18T00:34:37;37.17;;;18.83;;
9465;SDS011;4771;48.726;9.006;2022-12-18T00:37:03;36.97;;;18.27;;
9465;SDS011;4771;48.726;9.006;2022-12-18T00:39:30;40.10;;;19.20;;
9465;SDS011;4771;48.726;9.006;2022-12-18T00:41:58;42.87;;;19.00;;
9465;SDS011;4771;48.726;9.006;2022-12-18T00:44:42;40.40;;;20.07;;
9465;SDS011;4771;48.726;9.006;2022-12-18T00:47:10;39.67;;;20.13;;
9465;SDS011;4771;48.726;9.006;2022-12-18T00:49:37;37.83;;;18.20;;
9465;SDS011;4771;48.726;9.006;2022-12-18T00:52:04;32.57;;;16.43;;
9465;SDS011;4771;48.726;9.006;2022-12-18T00:54:31;37.60;;;16.63;;
9465;SDS011;4771;48.726;9.006;2022-12-18T00:56:58;33.50;;;15.83;;
9465;SDS011;4771;48.726;9.006;2022-12-18T00:59:24;29.53;;;14.90;;
9465;SDS011;4771;48.726;9.006;2022-12-18T01:01:51;36.07;;;16.73;;
9465;SDS011;4771;48.726;9.006;2022-12-18T01:04:19;31.53;;;16.40;;
9465;SDS011;4771;48.726;9.006;2022-12-18T01:06:46;34.93;;;16.33;;
9465;SDS011;4771;48.726;9.006;2022-12-18T01:09:13;29.70;;;15.17;;
9465;SDS011;4771;48.726;9.006;2022-12-18T01:11:40;32.27;;;16.37;;
9465;SDS011;4771;48.726;9.006;2022-12-18T01:14:07;31.63;;;15.73;;
9465;SDS011;4771;48.726;9.006;2022-12-18T01:16:35;30.43;;;15.70;;
9465;SDS011;4771;48.726;9.006;2022-12-18T01:19:01;32.67;;;16.23;;
9465;SDS011;4771;48.726;9.006;2022-12-18T01:21:30;33.73;;;16.77;;
9465;SDS011;4771;48.726;9.006;2022-12-18T01:23:56;28.77;;;15.30;;
9465;SDS011;4771;48.726;9.006;2022-12-18T01:26:24;27.57;;;14.77;;
9465;SDS011;4771;48.726;9.006;2022-12-18T01:28:54;34.33;;;17.13;;
9465;SDS011;4771;48.726;9.006;2022-12-18T01:31:22;30.10;;;15.13;;
9465;SDS011;4771;48.726;9.006;2022-12-18T01:33:51;33.20;;;14.80;;
9465;SDS011;4771;48.726;9.006;2022-12-18T01:36:20;32.07;;;14.23;;
9465;SDS011;4771;48.726;9.006;2022-12-18T01:38:49;33.20;;;14.87;;
9465;SDS011;4771;48.726;9.006;2022-12-18T01:41:17;26.30;;;13.23;;
9465;SDS011;4771;48.726;9.006;2022-12-18T01:43:50;26.77;;;13.80;;
9465;SDS011;4771;48.726;9.006;2022-12-18T01:46:18;29.77;;;14.60;;
9465;SDS011;4771;48.726;9.006;2022-12-18T01:48:47;30.80;;;14.37;;
9465;SDS011;4771;48.726;9.006;2022-12-18T01:51:16;29.87;;;15.13;;
9465;SDS011;4771;48.726;9.006;2022-12-18T01:53:43;26.93;;;13.67;;
9465;SDS011;4771;48.726;9.006;2022-12-18T01:56:14;24.57;;;12.90;;
9465;SDS011;4771;48.726;9.006;2022-12-18T01:58:46;27.67;;;14.30;;
9465;SDS011;4771;48.726;9.006;2022-12-18T02:01:17;24.23;;;12.87;;
9465;SDS011;4771;48.726;9.006;2022-12-18T02:03:45;24.40;;;12.43;;
9465;SDS011;4771;48.726;9.006;2022-12-18T02:06:13;26.60;;;13.13;;
9465;SDS011;4771;48.726;9.006;2022-12-18T02:08:45;27.83;;;13.47;;
9465;SDS011;4771;48.726;9.006;2022-12-18T02:11:22;25.43;;;13.50;;
9465;SDS011;4771;48.726;9.006;2022-12-18T02:13:59;27.50;;;14.37;;
9465;SDS011;4771;48.726;9.006;2022-12-18T02:16:35;32.63;;;14.23;;
9465;SDS011;4771;48.726;9.006;2022-12-18T02:19:08;28.97;;;14.77;;
9465;SDS011;4771;48.726;9.006;2022-12-18T02:21:46;27.57;;;14.50;;
9465;SDS011;4771;48.726;9.006;2022-12-18T02:24:24;29.37;;;15.07;;
9465;SDS011;4771;48.726;9.006;2022-12-18T02:27:00;28.57;;;14.37;;
9465;SDS011;4771;48.726;9.006;2022-12-18T02:29:31;31.90;;;15.90;;
9465;SDS011;4771;48.726;9.006;2022-12-18T02:32:02;36.00;;;16.90;;
9465;SDS011;4771;48.726;9.006;2022-12-18T02:34:32;33.63;;;17.07;;
9465;SDS011;4771;48.726;9.006;2022-12-18T02:37:03;32.73;;;16.10;;
9465;SDS011;4771;48.726;9.006;2022-12-18T02:39:33;32.90;;;15.73;;
9465;SDS011;4771;48.726;9.006;2022-12-18T02:42:04;32.37;;;17.00;;
9465;SDS011;4771;48.726;9.006;2022-12-18T02:44:33;29.77;;;16.40;;
9465;SDS011;4771;48.726;9.006;2022-12-18T02:47:00;26.27;;;14.23;;
9465;SDS011;4771;48.726;9.006;2022-12-18T02:49:31;25.93;;;13.17;;
9465;SDS011;4771;48.726;9.006;2022-12-18T02:52:07;29.40;;;13.80;;
9465;SDS011;4771;48.726;9.006;2022-12-18T02:54:47;27.87;;;13.87;;
9465;SDS011;4771;48.726;9.006;2022-12-18T02:57:25;31.03;;;15.37;;
9465;SDS011;4771;48.726;9.006;2022-12-18T03:00:00;32.40;;;15.97;;
9465;SDS011;4771;48.726;9.006;2022-12-18T03:02:33;33.37;;;15.90;;
9465;SDS011;4771;48.726;9.006;2022-12-18T03:05:07;34.93;;;17.03;;
9465;SDS011;4771;48.726;9.006;2022-12-18T03:07:42;29.00;;;14.57;;
9465;SDS011;4771;48.726;9.006;2022-12-18T03:10:15;31.90;;;14.93;;
9465;SDS011;4771;48.726;9.006;2022-12-18T03:12:47;30.67;;;16.83;;
9465;SDS011;4771;48.726;9.006;2022-12-18T03:15:19;38.93;;;19.53;;
9465;SDS011;4771;48.726;9.006;2022-12-18T03:17:51;35.07;;;15.63;;
9465;SDS011;4771;48.726;9.006;2022-12-18T03:20:25;39.07;;;18.90;;
9465;SDS011;4771;48.726;9.006;2022-12-18T03:22:57;29.77;;;15.87;;
9465;SDS011;4771;48.726;9.006;2022-12-18T03:25:29;27.20;;;15.50;;
9465;SDS011;4771;48.726;9.006;2022-12-18T03:28:01;30.93;;;16.20;;
9465;SDS011;4771;48.726;9.006;2022-12-18T03:30:33;29.37;;;15.67;;
9465;SDS011;4771;48.726;9.006;2022-12-18T03:33:05;33.03;;;17.00;;
9465;SDS011;4771;48.726;9.006;2022-12-18T03:35:37;29.93;;;16.13;;
9465;SDS011;4771;48.726;9.006;2022-12-18T03:38:08;32.40;;;16.10;;
9465;SDS011;4771;48.726;9.006;2022-12-18T03:40:40;33.07;;;17.27;;
9465;SDS011;4771;48.726;9.006;2022-12-18T03:43:14;35.90;;;16.93;;
9465;SDS011;4771;48.726;9.006;2022-12-18T03:45:48;30.43;;;15.10;;
9465;SDS011;4771;48.726;9.006;2022-12-18T03:48:19;31.90;;;16.73;;
9465;SDS011;4771;48.726;9.006;2022-12-18T03:50:53;35.37;;;16.80;;
9465;SDS011;4771;48.726;9.006;2022-12-18T03:53:25;33.30;;;16.10;;
9465;SDS011;4771;48.726;9.006;2022-12-18T03:56:00;30.73;;;15.87;;
9465;SDS011;4771;48.726;9.006;2022-12-18T03:58:29;31.83;;;15.30;;
9465;SDS011;4771;48.726;9.006;2022-12-18T04:00:59;30.53;;;15.67;;
9465;SDS011;4771;48.726;9.006;2022-12-18T04:03:33;31.20;;;15.77;;
9465;SDS011;4771;48.726;9.006;2022-12-18T04:06:01;26.90;;;14.97;;
9465;SDS011;4771;48.726;9.006;2022-12-18T04:08:29;28.57;;;14.80;;
9465;SDS011;4771;48.726;9.006;2022-12-18T04:10:56;29.57;;;15.00;;
9465;SDS011;4771;48.726;9.006;2022-12-18T04:13:23;30.00;;;14.80;;
9465;SDS011;4771;48.726;9.006;2022-12-18T04:15:52;28.60;;;15.50;;
9465;SDS011;4771;48.726;9.006;2022-12-18T04:18:19;29.47;;;15.87;;
9465;SDS011;4771;48.726;9.006;2022-12-18T04:20:46;30.20;;;16.10;;
9465;SDS011;4771;48.726;9.006;2022-12-18T04:23:13;29.40;;;16.20;;
9465;SDS011;4771;48.726;9.006;2022-12-18T04:25:39;30.27;;;15.63;;
9465;SDS011;4771;48.726;9.006;2022-12-18T04:28:06;30.53;;;14.77;;
9465;SDS011;4771;48.726;9.006;2022-12-18T04:30:33;28.07;;;15.33;;
9465;SDS011;4771;48.726;9.006;2022-12-18T04:33:01;30.00;;;16.33;;
9465;SDS011;4771;48.726;9.006;2022-12-18T04:35:28;33.83;;;16.87;;
9465;SDS011;4771;48.726;9.006;2022-12-18T04:37:56;31.83;;;15.07;;
9465;SDS011;4771;48.726;9.006;2022-12-18T04:40:22;30.13;;;14.97;;
9465;SDS011;4771;48.726;9.006;2022-12-18T04:42:49;33.67;;;15.67;;
9465;SDS011;4771;48.726;9.006;2022-12-18T04:45:16;29.20;;;15.07;;
9465;SDS011;4771;48.726;9.006;2022-12-18T04:47:43;27.77;;;15.03;;
9465;SDS011;4771;48.726;9.006;2022-12-18T04:50:11;29.87;;;15.03;;
9465;SDS011;4771;48.726;9.006;2022-12-18T04:52:38;31.50;;;14.90;;
9465;SDS011;4771;48.726;9.006;2022-12-18T04:55:05;30.50;;;14.80;;
9465;SDS011;4771;48.726;9.006;2022-12-18T04:57:32;28.03;;;15.30;;
9465;SDS011;4771;48.726;9.006;2022-12-18T04:59:59;27.40;;;14.93;;
9465;SDS011;4771;48.726;9.006;2022-12-18T05:02:26;28.93;;;14.10;;
9465;SDS011;4771;48.726;9.006;2022-12-18T05:04:53;27.90;;;14.30;;
9465;SDS011;4771;48.726;9.006;2022-12-18T05:07:21;27.77;;;14.57;;
9465;SDS011;4771;48.726;9.006;2022-12-18T05:09:48;32.00;;;15.57;;
9465;SDS011;4771;48.726;9.006;2022-12-18T05:12:15;27.00;;;14.17;;
9465;SDS011;4771;48.726;9.006;2022-12-18T05:14:41;29.67;;;15.13;;
9465;SDS011;4771;48.726;9.006;2022-12-18T05:17:08;32.97;;;15.73;;
9465;SDS011;4771;48.726;9.006;2022-12-18T05:19:38;28.93;;;14.73;;
9465;SDS011;4771;48.726;9.006;2022-12-18T05:22:08;31.17;;;15.03;;
9465;SDS011;4771;48.726;9.006;2022-12-18T05:24:37;33.10;;;14.73;;
9465;SDS011;4771;48.726;9.006;2022-12-18T05:27:03;31.47;;;15.87;;
9465;SDS011;4771;48.726;9.006;2022-12-18T05:29:30;33.83;;;15.03;;
9465;SDS011;4771;48.726;9.006;2022-12-18T05:31:57;34.07;;;16.17;;
9465;SDS011;4771;48.726;9.006;2022-12-18T05:34:24;27.27;;;15.10;;
9465;SDS011;4771;48.726;9.006;2022-12-18T05:36:51;28.63;;;14.43;;
9465;SDS011;4771;48.726;9.006;2022-12-18T05:39:17;31.60;;;15.63;;
9465;SDS011;4771;48.726;9.006;2022-12-18T05:41:46;28.70;;;15.03;;
9465;SDS011;4771;48.726;9.006;2022-12-18T05:44:12;25.10;;;13.53;;
9465;SDS011;4771;48.726;9.006;2022-12-18T05:46:42;33.63;;;16.10;;
9465;SDS011;4771;48.726;9.006;2022-12-18T05:49:09;28.13;;;16.13;;
9465;SDS011;4771;48.726;9.006;2022-12-18T05:51:36;31.33;;;15.30;;
9465;SDS011;4771;48.726;9.006;2022-12-18T05:54:03;29.77;;;14.07;;
9465;SDS011;4771;48.726;9.006;2022-12-18T05:56:29;26.53;;;14.30;;
9465;SDS011;4771;48.726;9.006;2022-12-18T05:58:58;25.97;;;14.70;;
9465;SDS011;4771;48.726;9.006;2022-12-18T06:01:25;25.50;;;13.67;;
9465;SDS011;4771;48.726;9.006;2022-12-18T06:03:52;31.17;;;15.07;;
9465;SDS011;4771;48.726;9.006;2022-12-18T06:06:20;31.33;;;14.90;;
9465;SDS011;4771;48.726;9.006;2022-12-18T06:08:48;29.53;;;14.43;;
9465;SDS011;4771;48.726;9.006;2022-12-18T06:11:16;25.57;;;13.97;;
9465;SDS011;4771;48.726;9.006;2022-12-18T06:13:44;27.90;;;13.73;;
9465;SDS011;4771;48.726;9.006;2022-12-18T06:16:12;28.37;;;14.70;;
9465;SDS011;4771;48.726;9.006;2022-12-18T06:18:39;28.33;;;15.10;;
9465;SDS011;4771;48.726;9.006;2022-12-18T06:21:06;26.60;;;14.10;;
9465;SDS011;4771;48.726;9.006;2022-12-18T06:23:33;24.63;;;14.07;;
9465;SDS011;4771;48.726;9.006;2022-12-18T06:26:03;28.53;;;14.53;;
9465;SDS011;4771;48.726;9.006;2022-12-18T06:28:30;24.20;;;13.23;;
9465;SDS011;4771;48.726;9.006;2022-12-18T06:30:57;27.47;;;13.77;;
9465;SDS011;4771;48.726;9.006;2022-12-18T06:33:26;30.33;;;14.17;;
9465;SDS011;4771;48.726;9.006;2022-12-18T06:35:54;28.13;;;13.67;;
9465;SDS011;4771;48.726;9.006;2022-12-18T06:38:26;28.63;;;13.70;;
9465;SDS011;4771;48.726;9.006;2022-12-18T06:40:53;26.93;;;13.70;;
9465;SDS011;4771;48.726;9.006;2022-12-18T06:43:20;25.70;;;13.53;;
9465;SDS011;4771;48.726;9.006;2022-12-18T06:45:46;25.70;;;13.23;;
9465;SDS011;4771;48.726;9.006;2022-12-18T06:48:17;28.57;;;14.17;;
9465;SDS011;4771;48.726;9.006;2022-12-18T06:50:45;27.27;;;13.93;;
9465;SDS011;4771;48.726;9.006;2022-12-18T06:53:13;26.30;;;13.57;;
9465;SDS011;4771;48.726;9.006;2022-12-18T06:55:40;26.97;;;14.57;;
9465;SDS011;4771;48.726;9.006;2022-12-18T06:58:07;31.27;;;14.87;;
9465;SDS011;4771;48.726;9.006;2022-12-18T07:00:33;29.33;;;13.70;;
9465;SDS011;4771;48.726;9.006;2022-12-18T07:03:00;29.80;;;14.70;;
9465;SDS011;4771;48.726;9.006;2022-12-18T07:05:27;30.33;;;14.20;;
9465;SDS011;4771;48.726;9.006;2022-12-18T07:07:56;28.13;;;14.10;;
9465;SDS011;4771;48.726;9.006;2022-12-18T07:10:22;28.70;;;14.20;;
9465;SDS011;4771;48.726;9.006;2022-12-18T07:12:49;27.13;;;14.20;;
9465;SDS011;4771;48.726;9.006;2022-12-18T07:15:16;29.13;;;14.97;;
9465;SDS011;4771;48.726;9.006;2022-12-18T07:17:43;34.87;;;16.00;;
9465;SDS011;4771;48.726;9.006;2022-12-18T07:20:10;28.00;;;15.23;;
9465;SDS011;4771;48.726;9.006;2022-12-18T07:22:37;30.77;;;15.77;;
9465;SDS011;4771;48.726;9.006;2022-12-18T07:25:06;32.13;;;16.77;;
9465;SDS011;4771;48.726;9.006;2022-12-18T07:27:33;36.63;;;18.73;;
9465;SDS011;4771;48.726;9.006;2022-12-18T07:30:00;32.53;;;16.47;;
9465;SDS011;4771;48.726;9.006;2022-12-18T07:32:27;35.20;;;16.57;;
9465;SDS011;4771;48.726;9.006;2022-12-18T07:34:54;31.30;;;16.73;;
9465;SDS011;4771;48.726;9.006;2022-12-18T07:37:21;30.60;;;15.73;;
9465;SDS011;4771;48.726;9.006;2022-12-18T07:39:48;35.07;;;17.97;;
9465;SDS011;4771;48.726;9.006;2022-12-18T07:42:16;31.63;;;17.30;;
9465;SDS011;4771;48.726;9.006;2022-12-18T07:44:58;31.07;;;16.33;;
9465;SDS011;4771;48.726;9.006;2022-12-18T07:47:25;29.57;;;15.73;;
9465;SDS011;4771;48.726;9.006;2022-12-18T07:49:52;32.97;;;16.80;;
9465;SDS011;4771;48.726;9.006;2022-12-18T07:52:19;31.10;;;16.17;;
9465;SDS011;4771;48.726;9.006;2022-12-18T07:54:46;28.00;;;15.70;;
9465;SDS011;4771;48.726;9.006;2022-12-18T07:57:15;32.87;;;16.37;;
9465;SDS011;4771;48.726;9.006;2022-12-18T07:59:42;30.73;;;16.17;;
9465;SDS011;4771;48.726;9.006;2022-12-18T08:02:09;32.60;;;16.57;;
9465;SDS011;4771;48.726;9.006;2022-12-18T08:04:36;29.57;;;15.37;;
9465;SDS011;4771;48.726;9.006;2022-12-18T08:07:03;30.03;;;15.33;;
9465;SDS011;4771;48.726;9.006;2022-12-18T08:09:30;31.90;;;16.50;;
9465;SDS011;4771;48.726;9.006;2022-12-18T08:11:56;30.03;;;16.13;;
9465;SDS011;4771;48.726;9.006;2022-12-18T08:14:25;32.53;;;15.73;;
9465;SDS011;4771;48.726;9.006;2022-12-18T08:16:51;32.07;;;16.10;;
9465;SDS011;4771;48.726;9.006;2022-12-18T08:19:18;31.10;;;15.73;;
9465;SDS011;4771;48.726;9.006;2022-12-18T08:21:45;34.60;;;17.63;;
9465;SDS011;4771;48.726;9.006;2022-12-18T08:24:12;46.30;;;21.40;;
9465;SDS011;4771;48.726;9.006;2022-12-18T08:26:39;40.30;;;20.80;;
9465;SDS011;4771;48.726;9.006;2022-12-18T08:29:06;36.10;;;18.10;;
9465;SDS011;4771;48.726;9.006;2022-12-18T08:31:34;34.80;;;17.37;;
9465;SDS011;4771;48.726;9.006;2022-12-18T08:34:01;30.57;;;16.63;;
9465;SDS011;4771;48.726;9.006;2022-12-18T08:36:28;27.30;;;15.87;;
9465;SDS011;4771;48.726;9.006;2022-12-18T08:38:54;27.30;;;15.97;;
9465;SDS011;4771;48.726;9.006;2022-12-18T08:41:22;29.20;;;16.17;;
9465;SDS011;4771;48.726;9.006;2022-12-18T08:43:49;28.87;;;16.87;;
9465;SDS011;4771;48.726;9.006;2022-12-18T08:46:36;30.50;;;17.97;;
9465;SDS011;4771;48.726;9.006;2022-12-18T08:49:05;31.10;;;16.40;;
9465;SDS011;4771;48.726;9.006;2022-12-18T08:51:35;34.67;;;17.87;;
9465;SDS011;4771;48.726;9.006;2022-12-18T08:54:02;34.50;;;17.60;;
9465;SDS011;4771;48.726;9.006;2022-12-18T08:56:30;27.10;;;15.33;;
9465;SDS011;4771;48.726;9.006;2022-12-18T08:58:58;27.33;;;15.37;;
9465;SDS011;4771;48.726;9.006;2022-12-18T09:01:25;31.43;;;16.23;;
9465;SDS011;4771;48.726;9.006;2022-12-18T09:03:53;29.17;;;16.47;;
9465;SDS011;4771;48.726;9.006;2022-12-18T09:06:20;29.83;;;15.80;;
9465;SDS011;4771;48.726;9.006;2022-12-18T09:08:48;26.97;;;13.90;;
9465;SDS011;4771;48.726;9.006;2022-12-18T09:11:20;26.47;;;15.00;;
9465;SDS011;4771;48.726;9.006;2022-12-18T09:13:48;28.37;;;15.33;;
9465;SDS011;4771;48.726;9.006;2022-12-18T09:16:16;25.40;;;14.20;;
9465;SDS011;4771;48.726;9.006;2022-12-18T09:18:44;29.80;;;15.60;;
9465;SDS011;4771;48.726;9.006;2022-12-18T09:21:13;27.87;;;15.97;;
9465;SDS011;4771;48.726;9.006;2022-12-18T09:23:41;26.07;;;14.67;;
9465;SDS011;4771;48.726;9.006;2022-12-18T09:26:08;26.83;;;16.33;;
9465;SDS011;4771;48.726;9.006;2022-12-18T09:28:36;27.77;;;15.67;;
9465;SDS011;4771;48.726;9.006;2022-12-18T09:31:03;29.80;;;16.23;;
9465;SDS011;4771;48.726;9.006;2022-12-18T09:33:32;25.63;;;14.47;;
9465;SDS011;4771;48.726;9.006;2022-12-18T09:36:00;26.13;;;15.03;;
9465;SDS011;4771;48.726;9.006;2022-12-18T09:38:30;27.30;;;15.50;;
9465;SDS011;4771;48.726;9.006;2022-12-18T09:40:57;27.73;;;14.87;;
9465;SDS011;4771;48.726;9.006;2022-12-18T09:43:28;27.37;;;15.50;;
9465;SDS011;4771;48.726;9.006;2022-12-18T09:46:01;29.73;;;15.60;;
9465;SDS011;4771;48.726;9.006;2022-12-18T09:48:31;29.50;;;16.57;;
9465;SDS011;4771;48.726;9.006;2022-12-18T09:51:02;28.80;;;15.50;;
9465;SDS011;4771;48.726;9.006;2022-12-18T09:53:37;32.57;;;16.57;;
9465;SDS011;4771;48.726;9.006;2022-12-18T09:56:05;29.47;;;16.77;;
9465;SDS011;4771;48.726;9.006;2022-12-18T09:58:37;28.83;;;15.70;;
9465;SDS011;4771;48.726;9.006;2022-12-18T10:01:10;31.47;;;16.13;;
9465;SDS011;4771;48.726;9.006;2022-12-18T10:03:38;30.57;;;15.43;;
9465;SDS011;4771;48.726;9.006;2022-12-18T10:06:06;28.17;;;15.33;;
9465;SDS011;4771;48.726;9.006;2022-12-18T10:08:42;25.13;;;16.07;;
9465;SDS011;4771;48.726;9.006;2022-12-18T10:14:01;28.60;;;15.83;;
9465;SDS011;4771;48.726;9.006;2022-12-18T10:16:36;27.17;;;16.27;;
9465;SDS011;4771;48.726;9.006;2022-12-18T10:19:19;27.43;;;15.53;;
9465;SDS011;4771;48.726;9.006;2022-12-18T10:21:56;29.00;;;16.63;;
9465;SDS011;4771;48.726;9.006;2022-12-18T10:24:30;28.73;;;16.13;;
9465;SDS011;4771;48.726;9.006;2022-12-18T10:27:09;28.77;;;16.17;;
9465;SDS011;4771;48.726;9.006;2022-12-18T10:29:40;27.57;;;15.37;;
9465;SDS011;4771;48.726;9.006;2022-12-18T10:32:09;26.93;;;15.30;;
9465;SDS011;4771;48.726;9.006;2022-12-18T10:34:40;24.27;;;13.90;;
9465;SDS011;4771;48.726;9.006;2022-12-18T10:37:11;28.80;;;16.33;;
9465;SDS011;4771;48.726;9.006;2022-12-18T10:39:44;26.70;;;14.70;;
9465;SDS011;4771;48.726;9.006;2022-12-18T10:42:14;27.73;;;15.20;;
9465;SDS011;4771;48.726;9.006;2022-12-18T10:44:43;30.50;;;16.90;;
9465;SDS011;4771;48.726;9.006;2022-12-18T10:47:11;24.70;;;14.70;;
9465;SDS011;4771;48.726;9.006;2022-12-18T10:49:42;27.77;;;15.47;;
9465;SDS011;4771;48.726;9.006;2022-12-18T10:52:15;26.53;;;15.30;;
9465;SDS011;4771;48.726;9.006;2022-12-18T10:54:50;26.13;;;15.03;;
9465;SDS011;4771;48.726;9.006;2022-12-18T10:57:29;25.13;;;15.03;;
9465;SDS011;4771;48.726;9.006;2022-12-18T10:59:59;26.17;;;15.40;;
9465;SDS011;4771;48.726;9.006;2022-12-18T11:02:39;27.87;;;15.60;;
9465;SDS011;4771;48.726;9.006;2022-12-18T11:07:56;25.50;;;14.00;;
9465;SDS011;4771;48.726;9.006;2022-12-18T11:10:28;25.53;;;14.97;;
9465;SDS011;4771;48.726;9.006;2022-12-18T11:13:08;24.83;;;15.07;;
9465;SDS011;4771;48.726;9.006;2022-12-18T11:15:42;23.43;;;15.07;;
9465;SDS011;4771;48.726;9.006;2022-12-18T11:18:16;24.83;;;14.77;;
9465;SDS011;4771;48.726;9.006;2022-12-18T11:20:50;25.33;;;14.67;;
9465;SDS011;4771;48.726;9.006;2022-12-18T11:23:18;25.27;;;15.40;;
9465;SDS011;4771;48.726;9.006;2022-12-18T11:25:54;26.20;;;14.30;;
9465;SDS011;4771;48.726;9.006;2022-12-18T11:28:35;25.47;;;13.97;;
9465;SDS011;4771;48.726;9.006;2022-12-18T11:31:09;23.53;;;14.40;;
9465;SDS011;4771;48.726;9.006;2022-12-18T11:33:46;21.93;;;13.43;;
9465;SDS011;4771;48.726;9.006;2022-12-18T11:36:28;24.23;;;14.10;;
9465;SDS011;4771;48.726;9.006;2022-12-18T11:38:59;24.37;;;15.33;;
9465;SDS011;4771;48.726;9.006;2022-12-18T11:41:34;24.03;;;15.27;;
9465;SDS011;4771;48.726;9.006;2022-12-18T11:44:26;25.87;;;15.57;;
9465;SDS011;4771;48.726;9.006;2022-12-18T11:46:59;24.93;;;14.47;;
9465;SDS011;4771;48.726;9.006;2022-12-18T11:49:33;27.00;;;14.87;;
9465;SDS011;4771;48.726;9.006;2022-12-18T11:52:01;25.63;;;15.30;;
9465;SDS011;4771;48.726;9.006;2022-12-18T11:54:35;25.93;;;15.13;;
9465;SDS011;4771;48.726;9.006;2022-12-18T11:57:05;27.07;;;14.97;;
9465;SDS011;4771;48.726;9.006;2022-12-18T11:59:38;22.73;;;14.00;;
9465;SDS011;4771;48.726;9.006;2022-12-18T12:02:21;27.77;;;16.10;;
9465;SDS011;4771;48.726;9.006;2022-12-18T12:05:13;23.07;;;14.20;;
9465;SDS011;4771;48.726;9.006;2022-12-18T12:07:54;23.97;;;14.20;;
9465;SDS011;4771;48.726;9.006;2022-12-18T12:10:32;26.27;;;14.37;;
9465;SDS011;4771;48.726;9.006;2022-12-18T12:13:15;25.47;;;14.93;;
9465;SDS011;4771;48.726;9.006;2022-12-18T12:16:00;24.00;;;14.60;;
9465;SDS011;4771;48.726;9.006;2022-12-18T12:18:36;26.07;;;15.10;;
9465;SDS011;4771;48.726;9.006;2022-12-18T12:21:14;25.90;;;15.13;;
9465;SDS011;4771;48.726;9.006;2022-12-18T12:23:50;27.03;;;15.20;;
9465;SDS011;4771;48.726;9.006;2022-12-18T12:26:26;30.97;;;16.97;;
9465;SDS011;4771;48.726;9.006;2022-12-18T12:29:07;25.70;;;15.27;;
9465;SDS011;4771;48.726;9.006;2022-12-18T12:31:50;28.07;;;15.20;;
9465;SDS011;4771;48.726;9.006;2022-12-18T12:34:29;29.00;;;15.90;;
9465;SDS011;4771;48.726;9.006;2022-12-18T12:37:07;25.33;;;15.37;;
9465;SDS011;4771;48.726;9.006;2022-12-18T12:39:42;27.13;;;15.47;;
9465;SDS011;4771;48.726;9.006;2022-12-18T12:42:12;28.70;;;16.20;;
9465;SDS011;4771;48.726;9.006;2022-12-18T12:45:05;28.57;;;15.30;;
9465;SDS011;4771;48.726;9.006;2022-12-18T12:47:40;26.87;;;14.90;;
9465;SDS011;4771;48.726;9.006;2022-12-18T12:50:12;27.57;;;15.23;;
9465;SDS011;4771;48.726;9.006;2022-12-18T12:52:43;28.43;;;16.33;;
9465;SDS011;4771;48.726;9.006;2022-12-18T12:55:13;30.70;;;16.97;;
9465;SDS011;4771;48.726;9.006;2022-12-18T12:57:45;28.97;;;16.40;;
9465;SDS011;4771;48.726;9.006;2022-12-18T13:00:20;28.93;;;16.00;;
9465;SDS011;4771;48.726;9.006;2022-12-18T13:02:50;29.37;;;15.90;;
9465;SDS011;4771;48.726;9.006;2022-12-18T13:05:24;29.83;;;16.53;;
9465;SDS011;4771;48.726;9.006;2022-12-18T13:07:55;29.40;;;15.83;;
9465;SDS011;4771;48.726;9.006;2022-12-18T13:10:26;30.93;;;17.53;;
9465;SDS011;4771;48.726;9.006;2022-12-18T13:12:59;32.23;;;17.47;;
9465;SDS011;4771;48.726;9.006;2022-12-18T13:15:30;30.93;;;17.57;;
9465;SDS011;4771;48.726;9.006;2022-12-18T13:18:13;30.70;;;16.70;;
9465;SDS011;4771;48.726;9.006;2022-12-18T13:20:43;28.93;;;15.50;;
9465;SDS011;4771;48.726;9.006;2022-12-18T13:23:19;30.07;;;16.53;;
9465;SDS011;4771;48.726;9.006;2022-12-18T13:25:54;27.73;;;15.70;;
9465;SDS011;4771;48.726;9.006;2022-12-18T13:28:22;30.50;;;17.17;;
9465;SDS011;4771;48.726;9.006;2022-12-18T13:30:52;34.47;;;18.43;;
9465;SDS011;4771;48.726;9.006;2022-12-18T13:36:16;31.73;;;16.63;;
9465;SDS011;4771;48.726;9.006;2022-12-18T13:45:40;31.87;;;17.70;;
9465;SDS011;4771;48.726;9.006;2022-12-18T13:48:21;29.93;;;16.73;;
9465;SDS011;4771;48.726;9.006;2022-12-18T13:50:53;32.63;;;17.37;;
9465;SDS011;4771;48.726;9.006;2022-12-18T13:53:25;28.73;;;15.97;;
9465;SDS011;4771;48.726;9.006;2022-12-18T13:55:53;32.37;;;17.37;;
9465;SDS011;4771;48.726;9.006;2022-12-18T13:58:20;29.83;;;16.57;;
9465;SDS011;4771;48.726;9.006;2022-12-18T14:00:47;32.40;;;16.97;;
9465;SDS011;4771;48.726;9.006;2022-12-18T14:03:16;30.70;;;17.03;;
9465;SDS011;4771;48.726;9.006;2022-12-18T14:05:46;30.33;;;16.37;;
9465;SDS011;4771;48.726;9.006;2022-12-18T14:08:21;30.10;;;16.27;;
9465;SDS011;4771;48.726;9.006;2022-12-18T14:10:48;32.27;;;17.33;;
9465;SDS011;4771;48.726;9.006;2022-12-18T14:13:19;30.27;;;17.43;;
9465;SDS011;4771;48.726;9.006;2022-12-18T14:15:50;33.57;;;16.90;;
9465;SDS011;4771;48.726;9.006;2022-12-18T14:18:19;32.63;;;17.30;;
9465;SDS011;4771;48.726;9.006;2022-12-18T14:20:50;34.70;;;17.50;;
9465;SDS011;4771;48.726;9.006;2022-12-18T14:23:25;34.53;;;18.00;;
9465;SDS011;4771;48.726;9.006;2022-12-18T14:25:54;34.97;;;17.83;;
9465;SDS011;4771;48.726;9.006;2022-12-18T14:28:21;34.50;;;17.40;;
9465;SDS011;4771;48.726;9.006;2022-12-18T14:30:48;30.97;;;17.40;;
9465;SDS011;4771;48.726;9.006;2022-12-18T14:33:16;31.90;;;17.13;;
9465;SDS011;4771;48.726;9.006;2022-12-18T14:35:53;30.93;;;16.60;;
9465;SDS011;4771;48.726;9.006;2022-12-18T14:38:26;33.10;;;16.13;;
9465;SDS011;4771;48.726;9.006;2022-12-18T14:40:59;36.70;;;18.30;;
9465;SDS011;4771;48.726;9.006;2022-12-18T14:43:28;35.97;;;18.73;;
9465;SDS011;4771;48.726;9.006;2022-12-18T14:45:57;36.07;;;18.27;;
9465;SDS011;4771;48.726;9.006;2022-12-18T14:48:33;35.00;;;18.13;;
9465;SDS011;4771;48.726;9.006;2022-12-18T14:51:04;38.33;;;19.53;;
9465;SDS011;4771;48.726;9.006;2022-12-18T14:53:33;35.63;;;18.57;;
9465;SDS011;4771;48.726;9.006;2022-12-18T14:56:03;34.70;;;17.43;;
9465;SDS011;4771;48.726;9.006;2022-12-18T14:58:43;36.33;;;18.83;;
9465;SDS011;4771;48.726;9.006;2022-12-18T15:01:17;35.77;;;18.97;;
9465;SDS011;4771;48.726;9.006;2022-12-18T15:03:45;39.50;;;19.83;;
9465;SDS011;4771;48.726;9.006;2022-12-18T15:06:17;40.27;;;21.27;;
9465;SDS011;4771;48.726;9.006;2022-12-18T15:08:50;39.27;;;19.27;;
9465;SDS011;4771;48.726;9.006;2022-12-18T15:11:27;36.80;;;18.63;;
9465;SDS011;4771;48.726;9.006;2022-12-18T15:13:58;38.97;;;20.10;;
9465;SDS011;4771;48.726;9.006;2022-12-18T15:16:25;46.63;;;21.70;;
9465;SDS011;4771;48.726;9.006;2022-12-18T15:18:53;44.43;;;21.53;;
9465;SDS011;4771;48.726;9.006;2022-12-18T15:21:21;38.73;;;19.00;;